Time;durP1;ratioP1;P1;durP2;ratioP2;P2;SDS_P1;SDS_P2;PMS_P1;PMS_P2;Temp;Humidity;BMP_temperature;BMP_pressure;BME280_temperature;BME280_humidity;BME280_pressure;Samples;Min_cycle;Max_cycle;Signal;HPM_P1;HPM_P2
2022/04/30 00:02:18;;;;;;;4.75;4.18;;;11.90;99.90;;;11.50;81.60;97648.69;4993007;28;20170;-58
2022/04/30 00:04:47;;;;;;;7.15;4.32;;;11.90;99.90;;;11.46;82.16;97653.22;4996736;28;20034;-59
2022/04/30 00:07:16;;;;;;;5.93;4.13;;;11.80;99.90;;;11.41;83.07;97649.03;4996206;28;20022;-59
2022/04/30 00:09:43;;;;;;;7.45;5.10;;;11.80;99.90;;;11.33;81.74;97656.38;4991890;28;20036;-58
2022/04/30 00:12:10;;;;;;;6.78;4.57;;;11.70;99.90;;;11.26;80.62;97655.75;4982854;28;20026;-58
2022/04/30 00:14:36;;;;;;;4.78;4.28;;;11.70;99.90;;;11.21;84.91;97652.41;4991327;28;20076;-58
2022/04/30 00:17:02;;;;;;;7.95;4.80;;;11.60;99.90;;;11.12;89.52;97658.84;4997509;28;20045;-59
2022/04/30 00:19:29;;;;;;;6.55;5.30;;;11.50;99.90;;;10.96;92.45;97655.03;4993063;28;20030;-58
2022/04/30 00:21:55;;;;;;;7.00;5.30;;;11.50;99.90;;;10.92;92.09;97671.88;4985457;28;20069;-58
2022/04/30 00:24:22;;;;;;;6.07;5.20;;;11.30;99.90;;;10.80;92.30;97671.41;4990521;28;20382;-59
2022/04/30 00:26:48;;;;;;;7.05;5.22;;;11.30;99.90;;;10.77;93.88;97668.00;4995869;28;20092;-59
2022/04/30 00:29:14;;;;;;;10.45;5.88;;;11.20;99.90;;;10.69;93.36;97670.88;4996978;28;20540;-59
2022/04/30 00:31:40;;;;;;;7.45;6.00;;;11.10;99.90;;;10.55;91.62;97659.91;4999696;28;20084;-59
2022/04/30 00:34:06;;;;;;;9.07;5.97;;;11.10;99.90;;;10.54;93.39;97669.59;4996716;28;20038;-58
2022/04/30 00:36:33;;;;;;;9.38;6.25;;;11.00;99.90;;;10.46;94.21;97661.06;4979593;28;20030;-58
2022/04/30 00:38:59;;;;;;;7.63;6.32;;;10.90;99.90;;;10.41;95.44;97666.50;4980177;28;20030;-59
2022/04/30 00:41:25;;;;;;;9.95;6.35;;;10.90;99.90;;;10.35;96.23;97665.84;4999027;28;20276;-59
2022/04/30 00:43:54;;;;;;;12.88;6.15;;;10.80;99.90;;;10.30;95.84;97664.19;5000433;28;20401;-58
2022/04/30 00:46:22;;;;;;;12.40;6.85;;;10.80;99.90;;;10.28;94.93;97670.41;4997956;28;20025;-59
2022/04/30 00:48:48;;;;;;;7.03;5.78;;;10.70;99.90;;;10.26;97.70;97661.69;5000071;28;20030;-59
2022/04/30 00:51:18;;;;;;;9.20;5.82;;;10.70;99.90;;;10.23;97.68;97662.66;4992878;28;20019;-59
2022/04/30 00:53:47;;;;;;;10.43;6.50;;;10.70;99.90;;;10.18;97.39;97658.44;4999536;28;20038;-59
2022/04/30 00:56:18;;;;;;;8.95;6.20;;;10.70;99.90;;;10.12;96.26;97641.91;4999924;28;20034;-59
2022/04/30 00:58:47;;;;;;;12.68;6.63;;;10.60;99.90;;;10.26;95.19;97659.91;4996976;28;20034;-59
2022/04/30 01:01:14;;;;;;;10.65;6.45;;;10.70;99.90;;;10.25;96.22;97660.81;4997743;28;20104;-59
2022/04/30 01:03:41;;;;;;;10.30;6.80;;;10.70;99.90;;;10.27;96.92;97663.41;4995860;28;20034;-59
2022/04/30 01:06:09;;;;;;;10.15;7.53;;;10.70;99.90;;;10.29;94.81;97661.59;5011147;28;20367;-59
2022/04/30 01:08:37;;;;;;;13.45;7.45;;;10.70;99.90;;;10.32;95.84;97662.38;4998556;28;20096;-59
2022/04/30 01:11:04;;;;;;;9.88;8.40;;;10.70;99.90;;;10.33;95.96;97665.88;4996844;28;20545;-59
2022/04/30 01:13:37;;;;;;;11.57;9.15;;;10.80;99.90;;;10.39;97.30;97663.06;4998076;28;20030;-58
2022/04/30 01:16:05;;;;;;;13.43;8.43;;;10.80;99.90;;;10.39;97.74;97667.44;4999257;28;20037;-59
2022/04/30 01:18:34;;;;;;;15.93;9.43;;;10.80;99.90;;;10.40;98.80;97654.22;4996151;28;20169;-58
2022/04/30 01:21:03;;;;;;;15.45;9.65;;;10.80;99.90;;;10.38;99.71;97661.31;4998779;28;20037;-58
2022/04/30 01:23:32;;;;;;;19.35;12.90;;;10.80;99.90;;;10.45;99.98;97662.00;4996505;28;20027;-59
2022/04/30 01:26:00;;;;;;;25.60;11.82;;;10.80;99.90;;;10.38;100.00;97650.78;5009011;28;20091;-58
2022/04/30 01:28:27;;;;;;;17.98;9.85;;;10.90;99.90;;;10.40;100.00;97662.13;5000183;28;20577;-59
2022/04/30 01:30:52;;;;;;;20.02;12.43;;;10.80;99.90;;;10.38;100.00;97652.56;4997877;28;20041;-58
2022/04/30 01:38:47;;;;;;;23.23;14.35;;;10.80;99.90;;;10.28;100.00;97644.03;4995400;28;20064;-59
2022/04/30 01:41:13;;;;;;;18.30;13.15;;;10.70;99.90;;;10.26;100.00;97651.97;4997664;28;20050;-59
2022/04/30 01:43:39;;;;;;;24.65;14.48;;;10.70;99.90;;;10.22;100.00;97652.16;4994957;28;20030;-59
2022/04/30 01:46:05;;;;;;;23.58;15.35;;;10.70;99.90;;;10.21;100.00;97643.38;5000419;28;20490;-59
2022/04/30 01:48:32;;;;;;;28.55;16.88;;;10.70;99.90;;;10.21;100.00;97643.38;4998664;28;20030;-59
2022/04/30 01:50:59;;;;;;;29.90;16.38;;;10.60;99.90;;;10.18;100.00;97642.63;4994145;28;20117;-59
2022/04/30 01:53:25;;;;;;;24.92;14.60;;;10.60;99.90;;;10.16;100.00;97631.25;4995679;28;20041;-59
2022/04/30 01:55:51;;;;;;;24.67;16.23;;;10.60;99.90;;;10.08;100.00;97632.34;5006341;28;20018;-59
2022/04/30 01:58:18;;;;;;;27.08;15.10;;;10.60;99.90;;;10.11;100.00;97632.25;4994317;28;20025;-59
2022/04/30 02:00:44;;;;;;;34.47;16.63;;;10.60;99.90;;;10.13;100.00;97627.78;4997735;28;20034;-59
2022/04/30 02:03:12;;;;;;;28.27;15.73;;;10.60;99.90;;;10.12;100.00;97628.72;4997273;28;20026;-59
2022/04/30 02:05:41;;;;;;;29.42;16.30;;;10.50;99.90;;;10.08;100.00;97621.81;4991675;28;20036;-59
2022/04/30 02:08:10;;;;;;;23.33;16.77;;;10.60;99.90;;;10.10;100.00;97629.66;4998506;28;20104;-59
2022/04/30 02:10:38;;;;;;;29.45;17.40;;;10.50;99.90;;;10.09;100.00;97633.22;4993415;28;20033;-59
2022/04/30 02:13:06;;;;;;;28.15;17.40;;;10.50;99.90;;;10.09;100.00;97630.59;4997967;28;20218;-59
2022/04/30 02:15:37;;;;;;;28.30;16.05;;;10.50;99.90;;;10.08;100.00;97618.31;4995385;28;20033;-59
2022/04/30 02:18:03;;;;;;;26.70;16.90;;;10.50;99.90;;;9.91;100.00;97596.00;4999061;28;20029;-59
2022/04/30 02:20:33;;;;;;;30.55;17.58;;;10.50;99.90;;;10.08;100.00;97619.16;4997705;28;20108;-59
2022/04/30 02:23:09;;;;;;;25.05;15.90;;;10.50;99.90;;;10.06;100.00;97618.34;4994043;28;20121;-59
2022/04/30 02:25:36;;;;;;;24.05;15.82;;;10.50;99.90;;;10.05;100.00;97615.75;4996707;28;20088;-59
2022/04/30 02:28:05;;;;;;;30.48;15.80;;;10.50;99.90;;;10.04;100.00;97619.34;4998944;28;20087;-59
2022/04/30 02:30:35;;;;;;;26.83;16.45;;;10.50;99.90;;;10.01;100.00;97614.16;4994757;28;20033;-59
2022/04/30 02:33:12;;;;;;;25.58;16.15;;;10.50;99.90;;;10.00;100.00;97623.84;4998087;28;20596;-59
2022/04/30 02:35:44;;;;;;;27.35;16.25;;;10.50;99.90;;;10.03;100.00;97622.88;4996807;28;20123;-59
2022/04/30 02:38:10;;;;;;;25.80;15.77;;;10.50;99.90;;;9.99;100.00;97622.09;4995560;28;20382;-59
2022/04/30 02:40:39;;;;;;;26.58;15.75;;;10.40;99.90;;;9.98;100.00;97624.78;4998806;28;20508;-59
2022/04/30 02:43:11;;;;;;;25.08;15.20;;;10.40;99.90;;;9.98;100.00;97619.50;4996940;28;20057;-59
2022/04/30 02:45:39;;;;;;;22.98;14.35;;;10.40;99.90;;;9.89;100.00;97611.00;4994312;28;20113;-59
2022/04/30 02:48:07;;;;;;;24.45;15.82;;;10.40;99.90;;;9.92;100.00;97621.44;4993051;28;20034;-59
2022/04/30 02:50:34;;;;;;;21.38;14.77;;;10.40;99.90;;;9.93;100.00;97606.50;4996335;28;20038;-59
2022/04/30 02:53:00;;;;;;;19.60;14.40;;;10.40;99.90;;;9.93;100.00;97617.03;4999148;28;20446;-59
2022/04/30 02:55:26;;;;;;;22.63;14.95;;;10.40;99.90;;;9.88;100.00;97614.53;4980443;28;20152;-59
2022/04/30 03:00:47;;;;;;;29.45;15.98;;;10.30;99.90;;;9.85;100.00;97611.13;4983712;28;20066;-59
2022/04/30 03:03:15;;;;;;;26.02;17.08;;;10.30;99.90;;;9.83;100.00;97610.31;4995191;28;20091;-59
2022/04/30 03:05:48;;;;;;;24.52;15.50;;;10.30;99.90;;;9.82;100.00;97613.88;4978755;28;20050;-59
2022/04/30 03:08:23;;;;;;;20.73;14.65;;;10.30;99.90;;;9.80;100.00;97613.91;5005906;28;20045;-59
2022/04/30 03:10:55;;;;;;;22.52;14.95;;;10.30;99.90;;;9.79;100.00;97614.81;4996338;28;20092;-59
2022/04/30 03:13:24;;;;;;;27.20;16.30;;;10.30;99.90;;;9.77;100.00;97611.38;4991419;28;20029;-59
2022/04/30 03:15:52;;;;;;;26.70;16.02;;;10.30;99.90;;;9.77;100.00;97614.00;4981049;28;20033;-59
2022/04/30 03:23:51;;;;;;;28.73;17.35;;;10.20;99.90;;;9.72;100.00;97605.38;4995717;28;20839;-59
2022/04/30 03:26:17;;;;;;;26.73;17.35;;;10.20;99.90;;;9.73;100.00;97615.00;4995457;28;20033;-59
2022/04/30 03:28:43;;;;;;;32.17;18.05;;;10.20;99.90;;;9.70;100.00;97602.78;4977446;28;20409;-59
2022/04/30 03:31:10;;;;;;;30.10;18.92;;;10.20;99.90;;;9.72;100.00;97614.13;4994286;28;20026;-59
2022/04/30 03:33:37;;;;;;;33.22;19.58;;;10.20;99.90;;;9.66;100.00;97600.28;4993848;28;20056;-59
2022/04/30 03:36:04;;;;;;;31.25;19.00;;;10.20;99.90;;;9.64;100.00;97604.75;4995899;28;20490;-59
2022/04/30 03:38:29;;;;;;;33.55;18.80;;;10.20;99.90;;;9.68;100.00;97620.41;4996758;28;20551;-59
2022/04/30 03:40:57;;;;;;;30.70;19.40;;;10.20;99.90;;;9.67;100.00;97623.97;4993565;28;20033;-59
2022/04/30 03:43:23;;;;;;;31.10;20.42;;;10.20;99.90;;;9.67;100.00;97623.06;4995567;28;20037;-59
2022/04/30 03:45:49;;;;;;;31.98;19.58;;;10.10;99.90;;;9.66;100.00;97618.72;4995354;28;20030;-59
2022/04/30 03:48:15;;;;;;;34.00;21.05;;;10.10;99.90;;;9.64;100.00;97625.81;4994782;28;20469;-59
2022/04/30 03:50:42;;;;;;;38.88;23.13;;;10.10;99.90;;;9.43;100.00;97593.94;4993938;28;20459;-58
2022/04/30 03:53:08;;;;;;;42.05;21.77;;;10.10;99.90;;;9.63;100.00;97622.31;4993670;28;20030;-59
2022/04/30 03:55:34;;;;;;;41.53;24.52;;;10.10;99.90;;;9.44;100.00;97593.03;4995718;28;20036;-59
2022/04/30 03:58:00;;;;;;;30.10;20.23;;;10.10;99.90;;;9.55;100.00;97621.69;4994376;28;20041;-59
2022/04/30 04:00:26;;;;;;;40.28;22.85;;;10.10;99.90;;;9.51;100.00;97614.75;4997823;28;20221;-59
2022/04/30 04:02:53;;;;;;;45.17;22.08;;;10.10;99.90;;;9.57;100.00;97632.19;4993592;28;20073;-59
2022/04/30 04:05:19;;;;;;;42.47;23.17;;;10.00;99.90;;;9.57;100.00;97629.53;4977724;28;20048;-59
2022/04/30 04:07:45;;;;;;;37.55;22.52;;;10.10;99.90;;;9.50;100.00;97623.59;4993492;28;20038;-59
2022/04/30 04:10:12;;;;;;;40.72;24.15;;;10.10;99.90;;;9.56;100.00;97628.66;4996109;28;20034;-59
2022/04/30 04:12:41;;;;;;;41.28;24.08;;;10.00;99.90;;;9.52;100.00;97634.94;4976758;28;20026;-59
2022/04/30 04:17:55;;;;;;;39.65;25.05;;;10.00;99.90;;;9.44;100.00;97626.38;4996187;28;20060;-58
2022/04/30 04:20:24;;;;;;;33.92;24.13;;;10.00;99.90;;;9.47;100.00;97636.81;4996432;28;20034;-58
2022/04/30 04:22:54;;;;;;;43.60;24.90;;;10.00;99.90;;;9.47;100.00;97650.00;4996604;28;20103;-59
2022/04/30 04:28:04;;;;;;;42.13;25.88;;;10.00;99.90;;;9.42;100.00;97644.88;4998087;28;20041;-59
2022/04/30 04:30:32;;;;;;;40.80;24.58;;;9.90;99.90;;;9.40;100.00;97641.41;4997866;28;20034;-58
2022/04/30 04:32:59;;;;;;;43.53;25.00;;;9.90;99.90;;;9.40;100.00;97643.16;4996468;28;20060;-59
2022/04/30 04:35:25;;;;;;;42.35;26.10;;;9.90;99.90;;;9.42;100.00;97647.50;4994367;28;20084;-58
2022/04/30 04:37:51;;;;;;;43.15;25.30;;;9.90;99.90;;;9.43;100.00;97651.00;4995567;28;20057;-58
2022/04/30 04:40:18;;;;;;;35.22;24.08;;;9.90;99.90;;;9.43;100.00;97653.63;4991222;28;20578;-58
2022/04/30 04:42:45;;;;;;;36.88;24.23;;;9.90;99.90;;;9.41;100.00;97658.94;4990788;28;20034;-58
2022/04/30 04:45:12;;;;;;;39.25;25.17;;;9.90;99.90;;;9.43;100.00;97654.47;4990376;28;20030;-58
2022/04/30 04:47:41;;;;;;;39.90;26.02;;;9.90;99.90;;;9.43;100.00;97664.16;4984732;28;20100;-58
2022/04/30 04:50:10;;;;;;;41.58;24.75;;;9.90;99.90;;;9.42;100.00;97663.28;4994461;28;20518;-58
2022/04/30 04:52:36;;;;;;;39.15;26.02;;;9.90;99.90;;;9.41;100.00;97673.88;4996610;28;20057;-58
2022/04/30 04:55:02;;;;;;;42.97;26.50;;;9.90;99.90;;;9.41;100.00;97671.25;4993515;28;20109;-58
2022/04/30 04:57:28;;;;;;;43.58;26.90;;;9.90;99.90;;;9.34;100.00;97668.75;4992687;28;20033;-58
2022/04/30 04:59:54;;;;;;;42.05;26.40;;;9.90;99.90;;;9.32;100.00;97661.81;4992339;28;20068;-59
2022/04/30 05:02:20;;;;;;;42.00;26.40;;;9.90;99.90;;;9.40;100.00;97677.41;5022659;23;20053;-58
2022/04/30 05:04:47;;;;;;;41.50;26.50;;;9.90;99.90;;;9.39;100.00;97675.69;5014021;28;20056;-58
2022/04/30 05:07:12;;;;;;;41.00;27.20;;;9.90;99.90;;;9.37;100.00;97675.72;5007445;28;20025;-58
2022/04/30 05:09:38;;;;;;;38.08;26.15;;;9.90;99.90;;;9.36;100.00;97676.63;5015682;28;20038;-58
2022/04/30 05:12:05;;;;;;;41.97;27.13;;;9.90;99.90;;;9.35;100.00;97681.03;5011722;28;20433;-58
2022/04/30 05:14:32;;;;;;;47.78;28.27;;;9.90;99.90;;;9.32;100.00;97677.63;5018374;28;20124;-57
2022/04/30 05:17:04;;;;;;;41.72;25.85;;;9.80;99.90;;;9.33;100.00;97689.84;5016962;28;20348;-57
2022/04/30 05:19:30;;;;;;;40.10;25.80;;;9.80;99.90;;;9.33;100.00;97692.47;5018126;28;20029;-57
2022/04/30 05:21:56;;;;;;;39.90;26.50;;;9.80;99.90;;;9.32;100.00;97691.63;5022474;28;20132;-57
2022/04/30 05:24:22;;;;;;;46.05;26.20;;;9.80;99.90;;;9.18;100.00;97676.19;5020414;28;20037;-57
2022/04/30 05:26:48;;;;;;;37.80;23.13;;;9.90;99.90;;;9.33;100.00;97711.78;5018653;28;21556;-57
2022/04/30 05:29:17;;;;;;;46.10;26.30;;;9.80;99.90;;;9.33;100.00;97713.53;5020016;28;20038;-57
2022/04/30 05:31:43;;;;;;;41.28;25.33;;;9.90;99.90;;;9.28;100.00;97708.41;5015977;28;20390;-57
2022/04/30 05:34:10;;;;;;;47.63;24.70;;;9.80;99.90;;;9.34;100.00;97721.41;5017588;28;20312;-57
2022/04/30 05:36:36;;;;;;;38.05;25.13;;;9.90;99.90;;;9.41;100.00;97708.09;5018344;28;20030;-57
2022/04/30 05:39:03;;;;;;;37.75;24.33;;;9.90;99.90;;;9.41;100.00;97714.22;5020534;28;20026;-57
2022/04/30 05:41:29;;;;;;;45.05;24.92;;;9.90;99.90;;;9.45;100.00;97715.00;5020878;28;20065;-57
2022/04/30 05:43:55;;;;;;;42.33;25.67;;;10.00;99.90;;;9.47;100.00;97718.44;5014846;28;20037;-57
2022/04/30 05:46:21;;;;;;;36.35;23.67;;;10.00;99.90;;;9.52;100.00;97713.91;5017272;28;20794;-57
2022/04/30 05:48:46;;;;;;;38.63;25.40;;;10.00;99.90;;;9.62;100.00;97711.88;5016044;28;20082;-57
2022/04/30 05:51:12;;;;;;;37.95;25.08;;;10.10;99.90;;;9.65;100.00;97717.91;5020128;28;20114;-57
2022/04/30 05:53:38;;;;;;;34.55;23.88;;;10.10;99.90;;;9.73;100.00;97715.09;5018118;28;20041;-57
2022/04/30 05:56:04;;;;;;;39.83;23.70;;;10.20;99.90;;;9.79;100.00;97711.41;5017726;28;20063;-57
2022/04/30 05:58:30;;;;;;;40.95;23.55;;;10.20;99.90;;;9.83;100.00;97716.53;5009017;28;20401;-57
2022/04/30 06:00:56;;;;;;;39.60;26.15;;;10.30;99.90;;;9.84;100.00;97718.28;5011315;28;20055;-56
2022/04/30 06:03:22;;;;;;;41.90;25.58;;;10.30;99.90;;;9.83;100.00;97720.94;5014916;28;20096;-57
2022/04/30 06:05:47;;;;;;;41.85;24.88;;;10.30;99.90;;;9.83;100.00;97720.94;5008871;28;20033;-56
2022/04/30 06:08:13;;;;;;;38.22;24.48;;;10.30;99.90;;;9.87;100.00;97722.56;5005952;28;20042;-56
2022/04/30 06:10:39;;;;;;;39.35;23.55;;;10.30;99.90;;;9.86;100.00;97721.72;5018115;28;20374;-57
2022/04/30 06:13:05;;;;;;;36.08;24.10;;;10.30;99.90;;;9.86;100.00;97718.22;5014598;28;20026;-57
2022/04/30 06:15:31;;;;;;;33.17;22.30;;;10.30;99.90;;;9.81;100.00;97699.91;5017341;28;20603;-57
2022/04/30 06:17:57;;;;;;;36.30;23.20;;;10.40;99.90;;;9.99;100.00;97718.72;5016848;28;20036;-57
2022/04/30 06:20:22;;;;;;;33.25;23.50;;;10.40;99.90;;;10.03;100.00;97723.00;5011855;28;20057;-57
2022/04/30 06:22:48;;;;;;;37.92;24.33;;;10.50;99.90;;;10.08;100.00;97716.66;4998320;28;20497;-52
2022/04/30 06:25:14;;;;;;;31.77;21.50;;;10.50;99.90;;;10.16;100.00;97720.84;5002114;28;20038;-52
2022/04/30 06:27:40;;;;;;;31.05;20.45;;;10.60;99.90;;;10.28;100.00;97728.38;5008446;28;20040;-63
2022/04/30 06:30:07;;;;;;;40.92;23.30;;;10.70;99.90;;;10.25;100.00;97724.09;5013970;28;20018;-57
2022/04/30 06:32:34;;;;;;;34.20;23.08;;;10.80;99.90;;;10.36;100.00;97730.84;5002869;23;20050;-57
2022/04/30 06:35:02;;;;;;;36.53;22.88;;;10.80;99.90;;;10.48;100.00;97727.81;4998612;28;20057;-57
2022/04/30 06:37:28;;;;;;;36.60;23.50;;;11.00;99.90;;;10.64;100.00;97734.34;4990278;28;20030;-58
2022/04/30 06:39:54;;;;;;;33.35;21.77;;;11.10;99.90;;;10.74;100.00;97732.25;4994225;28;20112;-57
2022/04/30 06:42:20;;;;;;;32.47;21.70;;;11.20;99.90;;;10.74;100.00;97732.25;4995033;28;20526;-57
2022/04/30 06:44:47;;;;;;;32.97;21.45;;;11.30;99.90;;;10.81;100.00;97741.69;5018215;23;20132;-48
2022/04/30 06:47:14;;;;;;;27.52;18.67;;;11.30;99.90;;;10.93;100.00;97737.81;5012882;28;20042;-49
2022/04/30 06:49:40;;;;;;;29.00;20.30;;;11.40;99.90;;;10.88;100.00;97740.59;5014432;28;20061;-49
2022/04/30 06:52:07;;;;;;;30.83;19.80;;;11.40;99.90;;;10.95;100.00;97743.03;5012944;28;20446;-49
2022/04/30 06:57:20;;;;;;;27.13;20.83;;;11.40;99.90;;;10.76;100.00;97748.91;4996341;28;20040;-49
2022/04/30 06:59:46;;;;;;;30.27;19.70;;;11.40;99.90;;;10.77;100.00;97748.00;4996601;28;20116;-49
2022/04/30 07:02:17;;;;;;;35.53;21.20;;;11.30;99.90;;;10.55;100.00;97721.44;4994248;28;20040;-49
2022/04/30 07:04:46;;;;;;;27.35;19.50;;;11.30;99.90;;;10.70;100.00;97755.25;4991776;28;20184;-52
2022/04/30 07:07:13;;;;;;;32.75;19.95;;;11.20;99.90;;;10.63;100.00;97750.22;4990405;28;20033;-48
2022/04/30 07:09:39;;;;;;;31.23;21.13;;;11.20;99.90;;;10.63;100.00;97750.22;4992920;28;20037;-47
2022/04/30 07:12:07;;;;;;;30.92;20.25;;;11.20;99.90;;;10.39;100.00;97725.47;4991272;28;20675;-47
2022/04/30 07:14:37;;;;;;;33.28;20.88;;;11.20;99.90;;;10.61;100.00;97741.50;4979635;28;20041;-51
2022/04/30 07:17:05;;;;;;;31.27;21.10;;;11.20;99.90;;;10.71;100.00;97748.19;4991278;28;20034;-46
2022/04/30 07:19:30;;;;;;;32.38;21.08;;;11.20;99.90;;;10.82;100.00;97755.75;4994716;28;20501;-47
2022/04/30 07:21:56;;;;;;;30.75;20.20;;;11.30;99.90;;;10.86;100.00;97754.75;4990379;28;20133;-47
2022/04/30 07:24:22;;;;;;;34.15;18.98;;;11.40;99.90;;;10.94;100.00;97744.81;4996104;28;20033;-48
2022/04/30 07:26:48;;;;;;;30.85;19.45;;;11.50;99.90;;;10.94;100.00;97749.22;4993064;28;20551;-48
2022/04/30 07:29:13;;;;;;;28.67;18.73;;;11.50;99.90;;;11.04;100.00;97748.88;4995789;28;20042;-47
2022/04/30 07:31:39;;;;;;;27.98;19.23;;;11.60;99.90;;;11.06;100.00;97751.47;4997328;28;20033;-47
2022/04/30 07:34:05;;;;;;;29.90;20.30;;;11.60;99.90;;;11.09;100.00;97756.66;4993919;28;20490;-48
2022/04/30 07:36:31;;;;;;;28.48;20.58;;;11.70;99.90;;;11.12;100.00;97751.25;4995001;28;20262;-51
2022/04/30 07:38:57;;;;;;;25.52;18.55;;;11.70;99.90;;;11.20;100.00;97757.13;4993233;28;20764;-47
2022/04/30 07:41:24;;;;;;;26.30;18.38;;;11.70;99.90;;;11.18;100.00;97761.63;4982833;28;20080;-49
2022/04/30 07:43:50;;;;;;;25.98;18.98;;;11.70;99.90;;;11.22;100.00;97771.16;4995923;28;20037;-48
2022/04/30 07:46:16;;;;;;;33.58;19.80;;;11.70;99.90;;;11.21;100.00;97763.28;4992846;28;20029;-47
2022/04/30 07:48:41;;;;;;;24.13;18.10;;;11.60;99.90;;;11.23;100.00;97764.97;4989990;28;20504;-47
2022/04/30 07:51:14;;;;;;;26.48;17.42;;;11.70;99.90;;;11.24;100.00;97764.03;4991746;28;20031;-47
2022/04/30 07:53:44;;;;;;;26.48;17.85;;;11.70;99.90;;;11.19;100.00;97758.03;4987620;28;20825;-49
2022/04/30 07:56:10;;;;;;;29.10;18.48;;;11.70;99.90;;;11.12;100.00;97764.44;4991801;28;20084;-51
2022/04/30 07:58:37;;;;;;;24.63;17.45;;;11.70;99.90;;;11.01;100.00;97762.16;4991782;28;20052;-46
2022/04/30 08:01:02;;;;;;;26.80;17.65;;;11.70;99.90;;;10.94;100.00;97768.56;4996499;28;20064;-48
2022/04/30 08:03:28;;;;;;;27.35;18.52;;;11.60;99.90;;;11.07;100.00;97767.25;4991918;28;20061;-46
2022/04/30 08:05:54;;;;;;;27.92;18.02;;;11.60;99.90;;;11.14;100.00;97765.25;4973591;28;20034;-49
2022/04/30 08:08:20;;;;;;;24.23;17.30;;;11.70;99.90;;;11.26;100.00;97754.28;4993687;28;20040;-47
2022/04/30 08:10:45;;;;;;;24.83;17.52;;;11.70;99.90;;;11.33;100.00;97760.22;4996057;28;20115;-46
2022/04/30 08:13:12;;;;;;;27.00;17.73;;;11.80;99.90;;;11.36;100.00;97762.78;4995575;28;20042;-46
2022/04/30 08:15:43;;;;;;;27.98;17.17;;;11.80;99.90;;;11.35;100.00;97766.31;4995553;28;20309;-48
2022/04/30 08:18:10;;;;;;;25.30;16.73;;;11.80;99.90;;;11.25;100.00;97760.50;4993114;28;20313;-46
2022/04/30 08:20:37;;;;;;;25.02;17.23;;;11.70;99.90;;;11.21;100.00;97763.28;4995041;28;20299;-47
2022/04/30 08:23:07;;;;;;;24.77;16.95;;;11.70;99.90;;;11.07;100.00;97761.97;4992185;28;20077;-47
2022/04/30 08:25:35;;;;;;;22.08;16.40;;;11.60;99.90;;;11.08;100.00;97768.97;4996684;28;20026;-46
2022/04/30 08:28:05;;;;;;;25.92;17.92;;;11.50;99.90;;;11.03;100.00;97764.75;4992168;28;20034;-46
2022/04/30 08:30:31;;;;;;;24.65;17.50;;;11.50;99.90;;;11.00;100.00;97767.47;4975422;28;20048;-47
2022/04/30 08:32:58;;;;;;;23.10;16.35;;;11.50;99.90;;;10.92;100.00;97778.28;4993001;28;20068;-47
2022/04/30 08:35:24;;;;;;;22.30;17.20;;;11.40;99.90;;;10.84;100.00;97770.63;4990912;28;20030;-46
2022/04/30 08:37:49;;;;;;;22.63;17.42;;;11.30;99.90;;;10.79;100.00;97772.56;4982629;28;20030;-46
2022/04/30 08:40:16;;;;;;;25.67;17.90;;;11.30;99.90;;;10.70;100.00;97767.56;4992282;28;20096;-47
2022/04/30 08:42:42;;;;;;;22.35;17.10;;;11.20;99.90;;;10.68;100.00;97769.41;4989164;28;20034;-47
2022/04/30 08:45:10;;;;;;;22.60;17.48;;;11.20;99.90;;;10.73;100.00;97775.41;4992341;28;20230;-48
2022/04/30 08:47:41;;;;;;;24.35;17.95;;;11.20;99.90;;;10.68;100.00;97778.16;4997201;28;20038;-43
2022/04/30 08:50:09;;;;;;;25.60;17.17;;;11.20;99.90;;;10.62;100.00;97764.31;4975445;28;20107;-51
2022/04/30 08:52:35;;;;;;;21.60;16.65;;;11.10;99.90;;;10.62;100.00;97774.84;4992377;28;20041;-56
2022/04/30 08:55:01;;;;;;;24.70;16.90;;;11.10;99.90;;;10.55;100.00;97778.59;4993811;28;20042;-55
2022/04/30 08:57:26;;;;;;;21.75;16.25;;;11.10;99.90;;;10.45;100.00;97773.59;4982079;28;20034;-56
2022/04/30 08:59:52;;;;;;;23.60;15.93;;;11.00;99.90;;;10.40;100.00;97783.41;4994880;28;20193;-56
2022/04/30 09:02:18;;;;;;;22.20;15.68;;;10.90;99.90;;;10.38;100.00;97773.84;4995619;28;20573;-51
2022/04/30 09:04:49;;;;;;;20.60;16.23;;;10.90;99.90;;;10.42;100.00;97778.97;4993975;28;20071;-49
2022/04/30 09:07:25;;;;;;;20.90;15.25;;;10.90;99.90;;;10.48;100.00;97770.88;4993187;28;20112;-54
2022/04/30 09:09:57;;;;;;;26.65;18.02;;;10.90;99.90;;;10.48;100.00;97768.25;4992945;28;20034;-51
2022/04/30 09:12:24;;;;;;;21.65;15.93;;;11.00;99.90;;;10.54;100.00;97780.38;4996214;28;20055;-51
2022/04/30 09:14:50;;;;;;;23.80;15.50;;;11.00;99.90;;;10.53;100.00;97775.13;4980584;28;20030;-50
2022/04/30 09:17:16;;;;;;;19.98;15.02;;;11.00;99.90;;;10.61;100.00;97768.72;4998899;28;20030;-51
2022/04/30 09:19:52;;;;;;;19.50;14.98;;;11.10;99.90;;;10.58;100.00;97778.50;4979235;28;20156;-54
2022/04/30 09:22:28;;;;;;;18.45;14.52;;;11.10;99.90;;;10.56;100.00;97769.78;4991286;28;20121;-53
2022/04/30 09:24:54;;;;;;;16.88;13.63;;;11.10;99.90;;;10.55;100.00;97775.94;4997097;28;20030;-54
2022/04/30 09:27:20;;;;;;;18.83;14.27;;;11.10;99.90;;;10.48;100.00;97781.44;4992337;28;20372;-55
2022/04/30 09:29:46;;;;;;;20.85;13.27;;;11.00;99.90;;;10.44;100.00;97776.28;4991248;28;21086;-53
2022/04/30 09:32:41;;;;;;;15.80;11.70;;;11.00;99.90;;;10.45;100.00;97778.03;4991231;28;20525;-54
2022/04/30 09:38:05;;;;;;;20.70;13.40;;;10.90;99.90;;;10.40;100.00;97778.16;4995404;28;20034;-53
2022/04/30 09:40:31;;;;;;;16.67;13.55;;;10.90;99.90;;;10.35;100.00;97787.97;4995085;28;20535;-54
2022/04/30 09:42:58;;;;;;;17.20;13.23;;;10.90;99.90;;;10.37;100.00;97777.38;4987250;28;20030;-54
2022/04/30 09:45:31;;;;;;;20.10;13.45;;;10.90;99.90;;;10.35;100.00;97777.41;4999281;28;20550;-55
2022/04/30 09:56:40;;;;;;;15.98;12.05;;;11.10;99.90;;;10.67;100.00;97775.56;4991999;28;20567;-50
2022/04/30 09:59:10;;;;;;;14.60;11.85;;;11.20;99.90;;;10.88;100.00;97774.03;4977072;28;20465;-51
2022/04/30 10:01:39;;;;;;;16.55;12.40;;;11.40;99.90;;;11.15;100.00;97774.91;4990090;28;20034;-52
2022/04/30 10:04:10;;;;;;;16.70;11.68;;;11.60;99.90;;;11.34;100.00;97772.53;4998816;28;20434;-53
2022/04/30 10:06:42;;;;;;;12.57;10.63;;;11.90;99.90;;;11.54;100.00;97771.84;4980424;28;20323;-54
2022/04/30 10:09:13;;;;;;;13.15;10.40;;;12.10;99.90;;;11.81;100.00;97769.13;4990546;28;20128;-50
2022/04/30 10:11:56;;;;;;;10.77;9.25;;;12.40;99.90;;;12.09;100.00;97773.44;4970719;28;20125;-53
2022/04/30 10:14:53;;;;;;;11.30;8.45;;;12.60;99.90;;;12.35;100.00;97772.47;4990924;28;20352;-53
2022/04/30 10:17:28;;;;;;;12.13;7.65;;;12.80;99.90;;;12.48;100.00;97775.50;4968398;28;20081;-53
2022/04/30 10:20:07;;;;;;;12.57;8.23;;;12.80;99.90;;;12.52;100.00;97772.66;4980033;28;20232;-53
2022/04/30 10:22:33;;;;;;;11.25;8.57;;;12.90;99.90;;;12.68;100.00;97775.56;4997695;28;20113;-50
2022/04/30 10:24:59;;;;;;;10.82;8.70;;;13.10;99.90;;;12.69;100.00;97771.16;4998061;28;20021;-53
2022/04/30 10:27:41;;;;;;;12.00;9.52;;;13.30;99.90;;;12.89;100.00;97768.56;4997923;28;20030;-53
2022/04/30 10:30:24;;;;;;;9.70;7.82;;;13.50;99.90;;;13.16;100.00;97769.22;4984957;28;20045;-54
2022/04/30 10:33:03;;;;;;;10.15;8.80;;;13.70;99.90;;;13.42;100.00;97769.06;4995810;28;20064;-54
2022/04/30 10:35:34;;;;;;;10.77;7.90;;;14.00;99.90;;;13.73;100.00;97760.69;4986113;28;20440;-54
2022/04/30 10:38:20;;;;;;;11.60;8.10;;;14.20;99.90;;;13.92;100.00;97766.00;4998594;28;20732;-50
2022/04/30 10:40:49;;;;;;;11.75;8.27;;;14.40;99.90;;;13.93;100.00;97765.94;4992660;28;20042;-53
2022/04/30 10:43:31;;;;;;;9.65;7.45;;;14.40;99.90;;;13.54;100.00;97763.25;4991468;28;20037;-50